Time;durP1;ratioP1;P1;durP2;ratioP2;P2;SDS_P1;SDS_P2;PMS_P1;PMS_P2;Temp;Humidity;BMP_temperature;BMP_pressure;BME280_temperature;BME280_humidity;BME280_pressure;Samples;Min_cycle;Max_cycle;Signal;HPM_P1;HPM_P2
2023/04/16 00:01:02;;;;;;;0.35;0.35;;;4.70;99.90;;;;;;5073255;28;20287;-67
2023/04/16 00:03:28;;;;;;;0.25;0.25;;;4.70;99.90;;;;;;5054935;28;20683;-67
2023/04/16 00:05:56;;;;;;;0.30;0.30;;;4.60;99.90;;;;;;5051801;28;20237;-68
2023/04/16 00:08:25;;;;;;;0.30;0.30;;;4.60;99.90;;;;;;5053229;28;20538;-68
2023/04/16 00:10:52;;;;;;;0.30;0.30;;;4.60;99.90;;;;;;5053387;28;20189;-67
2023/04/16 00:13:18;;;;;;;0.20;0.20;;;4.50;99.90;;;;;;5053420;28;20196;-69
2023/04/16 00:15:44;;;;;;;0.28;0.28;;;4.40;99.90;;;;;;5053133;28;20251;-67
2023/04/16 00:18:10;;;;;;;0.40;0.40;;;4.40;99.90;;;;;;5053213;28;20189;-67
2023/04/16 00:20:36;;;;;;;0.20;0.20;;;4.30;99.90;;;;;;5053054;28;20683;-67
2023/04/16 00:23:01;;;;;;;0.20;0.20;;;4.30;99.90;;;;;;5051903;28;20193;-67
2023/04/16 00:25:27;;;;;;;0.20;0.20;;;4.20;99.90;;;;;;5053149;28;20186;-67
2023/04/16 00:27:53;;;;;;;0.25;0.25;;;4.20;99.90;;;;;;5053213;28;20197;-67
2023/04/16 00:30:18;;;;;;;0.20;0.20;;;4.10;99.90;;;;;;5052974;28;20227;-68
2023/04/16 00:32:44;;;;;;;0.20;0.20;;;4.10;99.90;;;;;;5052869;28;20208;-67
2023/04/16 00:35:13;;;;;;;0.20;0.20;;;4.10;99.90;;;;;;5053459;28;20219;-67
2023/04/16 00:37:59;;;;;;;0.30;0.30;;;4.00;99.90;;;;;;5052888;28;20469;-67
2023/04/16 00:40:31;;;;;;;0.30;0.30;;;3.90;99.90;;;;;;5041838;28;20297;-68
2023/04/16 00:42:57;;;;;;;0.20;0.20;;;3.80;99.90;;;;;;5039087;28;20331;-67
2023/04/16 00:45:22;;;;;;;3.05;0.90;;;3.60;99.90;;;;;;5032842;28;20273;-68
2023/04/16 00:47:48;;;;;;;0.40;0.40;;;3.60;99.90;;;;;;5033005;28;20657;-66
2023/04/16 00:50:22;;;;;;;0.20;0.20;;;3.50;99.90;;;;;;5033072;28;20201;-67
2023/04/16 00:52:48;;;;;;;0.20;0.20;;;3.40;99.90;;;;;;5031774;28;20207;-67
2023/04/16 00:55:17;;;;;;;0.20;0.20;;;3.30;99.90;;;;;;5031753;28;20608;-67
2023/04/16 00:57:43;;;;;;;0.30;0.30;;;3.30;99.90;;;;;;5036994;28;20206;-67
2023/04/16 01:00:10;;;;;;;0.20;0.20;;;3.20;99.90;;;;;;5032959;28;20660;-67
2023/04/16 01:02:36;;;;;;;0.35;0.35;;;3.20;99.90;;;;;;5049550;23;20350;-68
2023/04/16 01:05:05;;;;;;;0.20;0.20;;;3.20;99.90;;;;;;5092858;28;20211;-69
2023/04/16 01:07:30;;;;;;;0.30;0.30;;;3.20;99.90;;;;;;5092181;28;20310;-69
2023/04/16 01:09:56;;;;;;;0.25;0.25;;;3.10;99.90;;;;;;5093114;28;20215;-68
2023/04/16 01:12:22;;;;;;;0.30;0.30;;;3.10;99.90;;;;;;5092879;28;20202;-69
2023/04/16 01:14:48;;;;;;;0.30;0.30;;;3.00;99.90;;;;;;5075312;28;20208;-68
2023/04/16 01:17:14;;;;;;;0.20;0.20;;;3.00;99.90;;;;;;5095373;28;20208;-69
2023/04/16 01:19:41;;;;;;;0.43;0.43;;;2.90;99.90;;;;;;5095719;28;20575;-69
2023/04/16 01:22:07;;;;;;;0.60;0.60;;;2.80;99.90;;;;;;5078786;28;20200;-69
2023/04/16 01:24:33;;;;;;;0.28;0.28;;;2.80;99.90;;;;;;5096651;28;20184;-69
2023/04/16 01:26:59;;;;;;;0.20;0.20;;;2.60;99.90;;;;;;5097032;28;20188;-69
2023/04/16 01:29:25;;;;;;;0.20;0.20;;;2.60;99.90;;;;;;5096802;28;20299;-69
2023/04/16 01:31:51;;;;;;;0.28;0.28;;;2.50;99.90;;;;;;5096694;28;20547;-69
2023/04/16 01:34:17;;;;;;;0.20;0.20;;;2.40;99.90;;;;;;5096816;28;20203;-69
2023/04/16 01:36:43;;;;;;;2.05;0.90;;;2.40;99.90;;;;;;5078271;28;20299;-69
2023/04/16 01:39:14;;;;;;;0.30;0.30;;;2.30;99.90;;;;;;5096596;28;20195;-68
2023/04/16 01:41:40;;;;;;;0.30;0.30;;;2.30;99.90;;;;;;5096229;28;20188;-68
2023/04/16 01:44:06;;;;;;;0.30;0.30;;;2.30;99.90;;;;;;5078382;28;20188;-69
2023/04/16 01:46:34;;;;;;;0.63;0.60;;;2.30;99.90;;;;;;5096307;28;20647;-68
2023/04/16 01:49:01;;;;;;;0.30;0.30;;;2.30;99.90;;;;;;5096411;28;20650;-69
2023/04/16 01:51:27;;;;;;;0.30;0.30;;;2.30;99.90;;;;;;5095957;28;20277;-69
2023/04/16 01:53:53;;;;;;;0.20;0.20;;;2.20;99.90;;;;;;5101764;28;20246;-71
2023/04/16 01:56:19;;;;;;;0.32;0.32;;;2.20;99.90;;;;;;5077803;28;20595;-69
2023/04/16 01:58:46;;;;;;;0.20;0.20;;;2.20;99.90;;;;;;5078122;28;20245;-69
2023/04/16 02:01:12;;;;;;;0.20;0.20;;;2.10;99.90;;;;;;5077492;28;20704;-69
2023/04/16 02:03:39;;;;;;;0.20;0.20;;;2.10;99.90;;;;;;5075441;28;20756;-69
2023/04/16 02:06:05;;;;;;;0.20;0.20;;;2.10;99.90;;;;;;5093786;28;20196;-69
2023/04/16 02:08:31;;;;;;;0.25;0.25;;;2.10;99.90;;;;;;5095891;28;20204;-69
2023/04/16 02:10:57;;;;;;;0.28;0.28;;;2.10;99.90;;;;;;5095539;28;20199;-69
2023/04/16 02:13:24;;;;;;;0.20;0.20;;;2.20;99.90;;;;;;5095633;28;20196;-70
2023/04/16 02:15:51;;;;;;;0.25;0.25;;;2.10;99.90;;;;;;5095863;28;20663;-69
2023/04/16 02:18:17;;;;;;;0.30;0.30;;;2.00;99.90;;;;;;5095965;28;20203;-69
2023/04/16 02:20:44;;;;;;;0.30;0.30;;;2.00;99.90;;;;;;5077562;28;20197;-69
2023/04/16 02:23:11;;;;;;;0.20;0.20;;;2.00;99.90;;;;;;5075665;28;20189;-69
2023/04/16 02:25:45;;;;;;;0.20;0.20;;;2.00;99.90;;;;;;5075303;28;20686;-69
2023/04/16 02:28:15;;;;;;;0.30;0.30;;;1.90;99.90;;;;;;5074167;28;20681;-69
2023/04/16 02:30:42;;;;;;;0.30;0.30;;;1.90;99.90;;;;;;5075283;28;20220;-69
2023/04/16 02:33:09;;;;;;;0.20;0.20;;;2.00;99.90;;;;;;5075614;28;20195;-70
2023/04/16 02:35:36;;;;;;;0.30;0.30;;;2.00;99.90;;;;;;5075105;28;20192;-70
2023/04/16 02:38:03;;;;;;;0.20;0.20;;;2.00;99.90;;;;;;5075167;28;20298;-71
2023/04/16 02:40:29;;;;;;;0.30;0.30;;;2.00;99.90;;;;;;5075046;28;20227;-70
2023/04/16 02:42:56;;;;;;;0.38;0.38;;;2.00;99.90;;;;;;5075035;28;20652;-70
2023/04/16 02:45:22;;;;;;;0.30;0.30;;;1.90;99.90;;;;;;5075152;28;20197;-71
2023/04/16 02:47:49;;;;;;;0.20;0.20;;;1.80;99.90;;;;;;5075178;28;20201;-70
2023/04/16 02:50:15;;;;;;;0.28;0.28;;;1.80;99.90;;;;;;5076028;28;20208;-69
2023/04/16 02:52:41;;;;;;;0.40;0.40;;;1.80;99.90;;;;;;5094941;28;20203;-69
2023/04/16 02:55:07;;;;;;;0.30;0.30;;;1.80;99.90;;;;;;5094643;28;20658;-69
2023/04/16 02:57:33;;;;;;;0.30;0.30;;;1.80;99.90;;;;;;5094518;28;20295;-69
2023/04/16 02:59:59;;;;;;;0.30;0.30;;;1.70;99.90;;;;;;5077036;28;20199;-69
2023/04/16 03:02:26;;;;;;;0.20;0.20;;;1.60;99.90;;;;;;5089041;28;20221;-68
2023/04/16 03:04:52;;;;;;;0.22;0.22;;;1.60;99.90;;;;;;5075082;28;20200;-69
2023/04/16 03:07:18;;;;;;;0.20;0.20;;;1.60;99.90;;;;;;5056615;28;20683;-69
2023/04/16 03:09:44;;;;;;;0.30;0.30;;;1.40;99.90;;;;;;5074952;28;20211;-69
2023/04/16 03:12:10;;;;;;;0.30;0.30;;;1.30;99.90;;;;;;5056644;28;20583;-69
2023/04/16 03:14:35;;;;;;;0.30;0.30;;;1.30;99.90;;;;;;5074432;28;20192;-70
2023/04/16 03:17:01;;;;;;;0.30;0.30;;;1.30;99.90;;;;;;5056042;28;20212;-69
2023/04/16 03:19:27;;;;;;;0.30;0.30;;;1.20;99.90;;;;;;5077883;28;20188;-70
2023/04/16 03:21:52;;;;;;;0.28;0.28;;;1.10;99.90;;;;;;5094411;28;20195;-68
2023/04/16 03:24:18;;;;;;;0.30;0.30;;;1.00;99.90;;;;;;5094703;28;20271;-69
2023/04/16 03:26:44;;;;;;;0.32;0.32;;;0.90;99.90;;;;;;5094368;28;20201;-69
2023/04/16 03:29:10;;;;;;;0.30;0.30;;;0.90;99.90;;;;;;5094375;28;20200;-69
2023/04/16 03:31:36;;;;;;;0.20;0.20;;;0.80;99.90;;;;;;5094000;28;20250;-69
2023/04/16 03:34:01;;;;;;;0.30;0.30;;;0.60;99.90;;;;;;5094022;28;20187;-68
2023/04/16 03:36:27;;;;;;;0.30;0.30;;;0.60;99.90;;;;;;5094286;28;20230;-69
2023/04/16 03:38:53;;;;;;;0.25;0.25;;;0.50;99.90;;;;;;5094146;28;20246;-69
2023/04/16 03:41:18;;;;;;;0.25;0.25;;;0.40;99.90;;;;;;5094105;28;20219;-70
2023/04/16 03:43:44;;;;;;;0.20;0.20;;;0.40;99.90;;;;;;5076170;28;20250;-69
2023/04/16 03:46:10;;;;;;;1.10;0.93;;;0.40;99.90;;;;;;5076535;28;20278;-68
2023/04/16 03:48:36;;;;;;;0.30;0.30;;;0.40;99.90;;;;;;5073554;28;20224;-69
2023/04/16 03:51:02;;;;;;;0.30;0.30;;;0.50;99.90;;;;;;5073772;28;20673;-68
2023/04/16 03:53:28;;;;;;;0.30;0.30;;;0.60;99.90;;;;;;5073487;28;20196;-70
2023/04/16 03:55:53;;;;;;;0.20;0.20;;;0.60;99.90;;;;;;5073404;28;20203;-68
2023/04/16 03:58:19;;;;;;;0.38;0.38;;;0.70;99.90;;;;;;5073544;28;20189;-69
2023/04/16 04:00:45;;;;;;;0.38;0.38;;;0.70;99.90;;;;;;5073555;28;20192;-69
2023/04/16 04:03:12;;;;;;;0.30;0.30;;;0.70;99.90;;;;;;5065041;28;20237;-68
2023/04/16 04:05:41;;;;;;;0.20;0.20;;;0.70;99.90;;;;;;5093233;28;20188;-69
2023/04/16 04:08:07;;;;;;;0.30;0.30;;;0.60;99.90;;;;;;5093539;28;20685;-68
2023/04/16 04:10:34;;;;;;;0.38;0.38;;;0.70;99.90;;;;;;5093153;28;20651;-68
2023/04/16 04:13:05;;;;;;;0.28;0.28;;;0.80;99.90;;;;;;5074995;28;20663;-69
2023/04/16 04:15:31;;;;;;;0.20;0.20;;;0.90;99.90;;;;;;5093377;28;20551;-68
2023/04/16 04:17:57;;;;;;;0.30;0.30;;;1.10;99.90;;;;;;5093539;28;20211;-69
2023/04/16 04:20:24;;;;;;;0.43;0.38;;;1.20;99.90;;;;;;5077847;28;20225;-69
2023/04/16 04:22:50;;;;;;;0.20;0.20;;;1.30;99.90;;;;;;5073301;28;20272;-68
2023/04/16 04:25:16;;;;;;;0.30;0.30;;;1.50;99.90;;;;;;5073345;28;20216;-68
2023/04/16 04:27:42;;;;;;;0.32;0.32;;;1.60;99.90;;;;;;5055107;28;20197;-68
2023/04/16 04:30:08;;;;;;;0.30;0.30;;;1.80;99.90;;;;;;5073363;28;20199;-68
2023/04/16 04:32:34;;;;;;;0.20;0.20;;;1.80;99.90;;;;;;5072815;28;20608;-68
2023/04/16 04:35:01;;;;;;;0.30;0.30;;;1.90;99.90;;;;;;5084819;28;20204;-68
2023/04/16 04:37:27;;;;;;;0.20;0.20;;;2.00;99.90;;;;;;5075236;28;20678;-69
2023/04/16 04:39:53;;;;;;;0.20;0.20;;;2.00;99.90;;;;;;5093384;28;20195;-69
2023/04/16 04:42:19;;;;;;;0.30;0.30;;;2.20;99.90;;;;;;5092884;28;20192;-68
2023/04/16 04:44:45;;;;;;;0.28;0.28;;;2.40;99.90;;;;;;5093180;28;20188;-68
2023/04/16 04:47:11;;;;;;;0.20;0.20;;;2.40;99.90;;;;;;5093301;28;20203;-69
2023/04/16 04:49:37;;;;;;;0.28;0.28;;;2.60;99.90;;;;;;5074906;28;20670;-68
2023/04/16 04:52:03;;;;;;;0.30;0.30;;;2.60;99.90;;;;;;5074084;28;20188;-68
2023/04/16 04:54:30;;;;;;;0.30;0.30;;;2.70;99.90;;;;;;5092926;28;20196;-69
2023/04/16 04:56:56;;;;;;;0.22;0.22;;;2.80;99.90;;;;;;5092903;28;20666;-68
2023/04/16 04:59:23;;;;;;;0.28;0.28;;;2.80;99.90;;;;;;5092433;28;20195;-69
2023/04/16 05:01:49;;;;;;;0.28;0.28;;;2.80;99.90;;;;;;5093286;28;20200;-68
2023/04/16 05:04:15;;;;;;;0.30;0.30;;;2.80;99.90;;;;;;5074872;28;20569;-68
2023/04/16 05:06:41;;;;;;;0.30;0.30;;;2.90;99.90;;;;;;5092774;28;20677;-68
2023/04/16 05:09:10;;;;;;;0.30;0.30;;;2.90;99.90;;;;;;5092816;28;20189;-68
2023/04/16 05:11:40;;;;;;;0.30;0.30;;;3.00;99.90;;;;;;5092390;28;20192;-70
2023/04/16 05:14:06;;;;;;;0.30;0.30;;;3.10;99.90;;;;;;5074551;28;20200;-69
2023/04/16 05:16:35;;;;;;;0.30;0.30;;;3.20;99.90;;;;;;5074506;28;20226;-69
2023/04/16 05:19:00;;;;;;;0.30;0.30;;;3.20;99.90;;;;;;5092858;28;20590;-69
2023/04/16 05:21:26;;;;;;;0.30;0.30;;;3.30;99.90;;;;;;5092779;28;20188;-69
2023/04/16 05:23:52;;;;;;;0.40;0.40;;;3.40;99.90;;;;;;5092988;28;20192;-68
2023/04/16 05:26:18;;;;;;;0.30;0.30;;;3.50;99.90;;;;;;5092927;28;20188;-69
2023/04/16 05:28:44;;;;;;;0.30;0.30;;;3.50;99.90;;;;;;5092782;28;20548;-69
2023/04/16 05:31:10;;;;;;;0.30;0.30;;;3.60;99.90;;;;;;5092923;28;20192;-69
2023/04/16 05:33:35;;;;;;;0.30;0.30;;;3.70;99.90;;;;;;5074162;28;20311;-69
2023/04/16 05:36:01;;;;;;;0.20;0.20;;;3.70;99.90;;;;;;5092751;28;20200;-68
2023/04/16 05:38:27;;;;;;;0.38;0.38;;;3.70;99.90;;;;;;5086639;28;20341;-68
2023/04/16 05:40:52;;;;;;;0.30;0.30;;;3.70;99.90;;;;;;5074585;28;20196;-68
2023/04/16 05:43:18;;;;;;;0.30;0.30;;;3.80;99.90;;;;;;5092724;28;20254;-68
2023/04/16 05:45:44;;;;;;;0.30;0.30;;;3.90;99.90;;;;;;5092883;28;20277;-68
2023/04/16 05:48:10;;;;;;;0.30;0.30;;;4.00;99.90;;;;;;5092824;28;20202;-69
2023/04/16 05:50:36;;;;;;;0.30;0.30;;;4.00;99.90;;;;;;5092542;28;20604;-68
2023/04/16 05:53:05;;;;;;;0.30;0.30;;;4.00;99.90;;;;;;5074622;28;20196;-69
2023/04/16 05:55:31;;;;;;;0.30;0.30;;;4.00;99.90;;;;;;5092458;28;20203;-68
2023/04/16 05:57:57;;;;;;;0.30;0.30;;;4.10;99.90;;;;;;5092599;28;20690;-69
2023/04/16 06:00:26;;;;;;;0.30;0.30;;;4.20;99.90;;;;;;5092450;28;20196;-69
2023/04/16 06:02:51;;;;;;;0.30;0.30;;;4.20;99.90;;;;;;5075110;28;20260;-68
2023/04/16 06:05:17;;;;;;;0.30;0.30;;;4.30;99.90;;;;;;5080582;28;20287;-69
2023/04/16 06:07:43;;;;;;;0.20;0.20;;;4.30;99.90;;;;;;5075668;28;20226;-68
2023/04/16 06:10:09;;;;;;;0.30;0.30;;;4.40;99.90;;;;;;5075915;28;20192;-68
2023/04/16 06:12:35;;;;;;;1.23;1.10;;;4.50;99.90;;;;;;5056964;28;20201;-69
2023/04/16 06:15:01;;;;;;;0.30;0.30;;;4.60;99.90;;;;;;5077232;28;20536;-69
2023/04/16 06:17:26;;;;;;;0.20;0.20;;;4.70;99.90;;;;;;5095773;28;20226;-69
2023/04/16 06:19:52;;;;;;;0.20;0.20;;;4.80;99.90;;;;;;5077769;28;20659;-68
2023/04/16 06:22:18;;;;;;;0.30;0.30;;;4.80;99.90;;;;;;5077765;28;20202;-69
2023/04/16 06:24:43;;;;;;;0.30;0.30;;;5.00;99.90;;;;;;5095790;28;20185;-68
2023/04/16 06:27:09;;;;;;;0.20;0.20;;;5.10;99.90;;;;;;5096017;28;20199;-69
2023/04/16 06:29:35;;;;;;;0.20;0.20;;;5.10;99.90;;;;;;5095411;28;20203;-69
2023/04/16 06:32:02;;;;;;;0.50;0.30;;;5.30;99.90;;;;;;5095778;28;20203;-69
2023/04/16 06:34:28;;;;;;;0.22;0.22;;;5.30;99.90;;;;;;5095408;28;20261;-69
2023/04/16 06:36:54;;;;;;;0.20;0.20;;;5.40;99.90;;;;;;5093031;28;20662;-68
2023/04/16 06:39:20;;;;;;;0.70;0.70;;;5.50;99.90;;;;;;5075140;28;20197;-67
2023/04/16 06:41:49;;;;;;;0.30;0.30;;;5.60;99.90;;;;;;5057345;28;20205;-67
2023/04/16 06:44:15;;;;;;;0.20;0.20;;;5.70;99.90;;;;;;5075278;28;20196;-68
2023/04/16 06:46:41;;;;;;;0.35;0.35;;;5.80;99.90;;;;;;5075130;28;20663;-68
2023/04/16 06:49:06;;;;;;;0.20;0.20;;;6.00;99.90;;;;;;5075276;28;20189;-68
2023/04/16 06:51:32;;;;;;;0.40;0.40;;;6.00;99.90;;;;;;5056161;28;20200;-67
2023/04/16 06:53:58;;;;;;;0.30;0.30;;;6.10;99.90;;;;;;5056993;28;20201;-68
2023/04/16 06:56:24;;;;;;;0.30;0.30;;;6.30;99.90;;;;;;5074220;28;20205;-68
2023/04/16 06:58:50;;;;;;;0.25;0.25;;;6.30;99.90;;;;;;5075112;28;20196;-68
2023/04/16 07:01:16;;;;;;;0.20;0.20;;;6.40;99.90;;;;;;5057044;28;20200;-68
2023/04/16 07:03:42;;;;;;;0.30;0.30;;;6.50;99.90;;;;;;5073840;28;20231;-68
2023/04/16 07:06:09;;;;;;;0.20;0.20;;;6.70;99.90;;;;;;5056501;28;20559;-69
2023/04/16 07:08:34;;;;;;;1.92;1.30;;;6.80;99.90;;;;;;5056324;28;20193;-68
2023/04/16 07:11:00;;;;;;;0.30;0.30;;;6.80;99.90;;;;;;5056877;28;20219;-68
2023/04/16 07:13:26;;;;;;;0.20;0.20;;;6.80;99.90;;;;;;5075741;28;20201;-69
2023/04/16 07:15:52;;;;;;;0.20;0.20;;;7.10;99.90;;;;;;5094332;28;20195;-69
2023/04/16 07:18:19;;;;;;;0.30;0.30;;;7.20;99.90;;;;;;5095167;28;20261;-69
2023/04/16 07:20:45;;;;;;;0.30;0.30;;;7.40;99.90;;;;;;5094852;28;20211;-68
2023/04/16 07:23:10;;;;;;;0.30;0.30;;;7.50;99.90;;;;;;5094713;28;20672;-69
2023/04/16 07:25:36;;;;;;;0.20;0.20;;;7.50;99.90;;;;;;5094567;28;20689;-69
2023/04/16 07:28:02;;;;;;;0.20;0.20;;;7.70;99.90;;;;;;5076418;28;20219;-69
2023/04/16 07:30:34;;;;;;;0.20;0.20;;;7.90;99.90;;;;;;5093691;28;20290;-69
2023/04/16 07:33:02;;;;;;;0.20;0.20;;;8.00;99.90;;;;;;5094592;28;20207;-69
2023/04/16 07:35:29;;;;;;;0.20;0.20;;;8.00;99.90;;;;;;5094379;28;20569;-69
2023/04/16 07:37:55;;;;;;;0.20;0.20;;;8.20;99.90;;;;;;5076056;28;20203;-69
2023/04/16 07:40:20;;;;;;;0.20;0.20;;;8.30;99.90;;;;;;5094436;28;20192;-69
2023/04/16 07:42:46;;;;;;;0.20;0.20;;;8.50;99.90;;;;;;5094394;28;20200;-69
2023/04/16 07:45:12;;;;;;;0.20;0.20;;;8.70;99.90;;;;;;5094540;28;20706;-69
2023/04/16 07:47:44;;;;;;;0.20;0.20;;;8.80;99.90;;;;;;5094060;28;20608;-69
2023/04/16 07:50:11;;;;;;;0.38;0.38;;;9.00;99.90;;;;;;5075504;28;20200;-69
2023/04/16 07:52:44;;;;;;;0.30;0.30;;;9.10;99.90;;;;;;5094172;28;20283;-69
2023/04/16 07:55:10;;;;;;;0.20;0.20;;;9.30;99.90;;;;;;5077282;28;20198;-70
2023/04/16 07:57:36;;;;;;;0.20;0.20;;;9.50;99.90;;;;;;5076118;28;20230;-69
2023/04/16 08:00:03;;;;;;;0.20;0.20;;;9.60;99.90;;;;;;5075953;28;20275;-70
2023/04/16 08:02:30;;;;;;;0.30;0.30;;;9.90;99.90;;;;;;5093610;28;20273;-67
2023/04/16 08:04:55;;;;;;;0.30;0.30;;;10.10;99.90;;;;;;5081609;28;20612;-67
2023/04/16 08:07:21;;;;;;;0.25;0.25;;;10.00;99.90;;;;;;5055636;28;20232;-68
2023/04/16 08:09:49;;;;;;;0.38;0.38;;;10.20;99.90;;;;;;5093918;28;20196;-67
2023/04/16 08:12:16;;;;;;;0.30;0.30;;;10.30;99.90;;;;;;5075419;28;20682;-68
2023/04/16 08:14:42;;;;;;;0.32;0.32;;;10.40;99.90;;;;;;5092974;28;20231;-69
2023/04/16 08:17:08;;;;;;;0.28;0.28;;;10.40;99.90;;;;;;5093124;28;20295;-71
2023/04/16 08:19:34;;;;;;;0.20;0.20;;;10.40;99.90;;;;;;5093256;28;20267;-67
2023/04/16 08:22:00;;;;;;;0.20;0.20;;;10.60;99.90;;;;;;5075494;28;20192;-68
2023/04/16 08:24:26;;;;;;;0.25;0.25;;;10.80;99.90;;;;;;5093442;28;20681;-69
2023/04/16 08:26:51;;;;;;;0.30;0.30;;;10.80;99.90;;;;;;5066944;28;20257;-69
2023/04/16 08:29:17;;;;;;;0.20;0.20;;;10.90;99.90;;;;;;5093706;28;20565;-69
2023/04/16 08:31:43;;;;;;;5.07;0.55;;;11.10;99.90;;;;;;5093199;28;20199;-68
2023/04/16 08:34:10;;;;;;;0.28;0.28;;;11.50;99.90;;;;;;5093602;28;20196;-70
2023/04/16 08:36:36;;;;;;;0.20;0.20;;;11.80;99.90;;;;;;5093121;28;20200;-69
2023/04/16 08:39:02;;;;;;;0.20;0.20;;;12.10;99.90;;;;;;5114098;28;20266;-69
2023/04/16 08:41:31;;;;;;;0.22;0.22;;;12.30;99.90;;;;;;5113722;28;20191;-69
2023/04/16 08:44:01;;;;;;;0.20;0.20;;;12.50;99.90;;;;;;5113596;28;20603;-69
2023/04/16 08:46:28;;;;;;;0.20;0.20;;;12.40;99.90;;;;;;5113597;28;20195;-70
2023/04/16 08:48:57;;;;;;;0.35;0.35;;;12.40;99.90;;;;;;5112111;28;20187;-70
2023/04/16 08:51:28;;;;;;;1.00;0.63;;;12.70;99.90;;;;;;5092771;28;20184;-69
2023/04/16 08:54:03;;;;;;;0.20;0.20;;;12.90;99.50;;;;;;5093009;28;20188;-68
2023/04/16 08:56:34;;;;;;;0.30;0.30;;;12.90;99.30;;;;;;5074467;28;20253;-68
2023/04/16 08:59:04;;;;;;;0.20;0.20;;;13.00;97.90;;;;;;5093053;28;20196;-69
2023/04/16 09:01:34;;;;;;;0.15;0.15;;;13.00;97.30;;;;;;5074336;28;20196;-68
2023/04/16 09:04:03;;;;;;;1.27;1.17;;;13.10;97.30;;;;;;5074346;28;20311;-71
2023/04/16 09:06:30;;;;;;;0.32;0.32;;;13.20;97.50;;;;;;5113367;28;20191;-69
2023/04/16 09:08:57;;;;;;;0.17;0.17;;;13.40;97.30;;;;;;5113332;28;20188;-69
2023/04/16 09:11:24;;;;;;;0.40;0.40;;;13.60;97.80;;;;;;5094916;28;20203;-70
2023/04/16 09:13:51;;;;;;;0.70;0.55;;;14.00;96.80;;;;;;5113821;28;20202;-70
2023/04/16 09:16:17;;;;;;;0.80;0.47;;;14.00;94.20;;;;;;5113340;28;20240;-69
2023/04/16 09:18:43;;;;;;;1.33;1.23;;;13.90;96.30;;;;;;5113352;28;20555;-70
2023/04/16 09:21:12;;;;;;;0.38;0.38;;;13.80;96.90;;;;;;5113584;28;20192;-69
2023/04/16 09:23:38;;;;;;;0.25;0.25;;;14.10;96.50;;;;;;5083531;28;20239;-69
2023/04/16 09:26:04;;;;;;;0.15;0.15;;;14.10;95.50;;;;;;5092609;28;20184;-70
2023/04/16 09:28:45;;;;;;;0.98;0.50;;;14.30;93.80;;;;;;5074583;28;20202;-72
2023/04/16 09:31:18;;;;;;;0.30;0.30;;;14.70;94.80;;;;;;5092612;28;20190;-72
2023/04/16 09:34:07;;;;;;;0.45;0.43;;;15.00;92.90;;;;;;5092387;28;20302;-71
2023/04/16 09:36:34;;;;;;;0.10;0.10;;;15.00;92.80;;;;;;5092577;28;20207;-72
2023/04/16 09:39:00;;;;;;;0.20;0.20;;;15.20;92.60;;;;;;5113502;28;20195;-71
2023/04/16 09:41:28;;;;;;;0.25;0.25;;;15.40;93.90;;;;;;5116915;28;20187;-71
2023/04/16 09:43:59;;;;;;;0.20;0.20;;;15.60;93.70;;;;;;5117064;28;20188;-70
2023/04/16 09:46:34;;;;;;;0.10;0.10;;;15.70;90.60;;;;;;5105048;28;20227;-70
2023/04/16 09:49:12;;;;;;;0.30;0.30;;;15.60;90.70;;;;;;5096767;28;20191;-71
2023/04/16 09:51:43;;;;;;;0.28;0.28;;;15.90;89.80;;;;;;5096114;28;20578;-71
2023/04/16 09:54:09;;;;;;;0.10;0.10;;;15.90;85.50;;;;;;5096573;28;20192;-70
2023/04/16 09:56:45;;;;;;;0.52;0.52;;;16.20;88.50;;;;;;5095950;28;20578;-71
2023/04/16 09:59:17;;;;;;;0.20;0.20;;;16.40;86.50;;;;;;5096565;28;20669;-69
2023/04/16 10:01:45;;;;;;;1.85;0.65;;;16.50;89.00;;;;;;5077510;28;20732;-72
2023/04/16 10:04:11;;;;;;;0.15;0.15;;;16.70;86.40;;;;;;5095747;28;20239;-70
2023/04/16 10:06:37;;;;;;;2.30;0.50;;;16.70;83.20;;;;;;5096109;28;20184;-72
2023/04/16 10:09:07;;;;;;;0.10;0.10;;;16.30;84.10;;;;;;5095941;28;20192;-71
2023/04/16 10:11:33;;;;;;;0.50;0.50;;;16.10;84.00;;;;;;5077046;28;20241;-70
2023/04/16 10:13:59;;;;;;;0.15;0.15;;;15.90;85.90;;;;;;5096236;28;20185;-71
2023/04/16 10:16:25;;;;;;;0.10;0.10;;;16.00;82.00;;;;;;5095998;28;20282;-70
2023/04/16 10:18:52;;;;;;;0.13;0.13;;;15.70;84.70;;;;;;5077618;28;20192;-71
2023/04/16 10:21:20;;;;;;;0.30;0.30;;;15.60;84.40;;;;;;5095843;28;20261;-70
2023/04/16 10:23:48;;;;;;;0.45;0.45;;;15.90;82.60;;;;;;5095864;28;20192;-70
2023/04/16 10:26:15;;;;;;;0.40;0.40;;;15.90;82.30;;;;;;5095864;28;20314;-69
2023/04/16 10:28:41;;;;;;;0.55;0.55;;;16.20;82.40;;;;;;5095635;28;20195;-70
2023/04/16 10:31:08;;;;;;;0.65;0.60;;;16.20;84.30;;;;;;5095825;28;20663;-71
2023/04/16 10:33:36;;;;;;;0.45;0.45;;;16.60;81.90;;;;;;5101221;28;20560;-70
2023/04/16 10:36:15;;;;;;;0.40;0.40;;;16.70;77.90;;;;;;5116068;28;20188;-70
2023/04/16 10:38:45;;;;;;;0.73;0.50;;;17.00;84.90;;;;;;5115872;28;20221;-70
2023/04/16 10:41:11;;;;;;;0.30;0.30;;;17.20;81.90;;;;;;5115984;28;20187;-70
2023/04/16 10:43:44;;;;;;;0.70;0.70;;;17.10;79.80;;;;;;5095298;28;20193;-70
2023/04/16 10:46:30;;;;;;;0.40;0.40;;;17.00;79.00;;;;;;5094997;28;20694;-71
2023/04/16 10:49:00;;;;;;;0.30;0.30;;;17.70;77.70;;;;;;5076308;28;20219;-70
2023/04/16 10:51:32;;;;;;;0.75;0.50;;;18.10;79.30;;;;;;5095617;28;20184;-71
2023/04/16 10:54:23;;;;;;;0.47;0.47;;;18.40;77.30;;;;;;5095257;28;20204;-70
2023/04/16 10:56:50;;;;;;;0.35;0.35;;;19.00;71.90;;;;;;5076492;28;20200;-69
2023/04/16 10:59:21;;;;;;;0.30;0.30;;;18.50;71.00;;;;;;5081032;28;20198;-72
2023/04/16 11:01:50;;;;;;;0.30;0.30;;;18.40;73.80;;;;;;5115545;28;20275;-72
2023/04/16 11:04:19;;;;;;;0.35;0.35;;;18.10;76.30;;;;;;5089757;28;20224;-70
2023/04/16 11:07:12;;;;;;;1.33;0.88;;;18.50;77.10;;;;;;5076844;28;20238;-70
2023/04/16 11:10:01;;;;;;;0.40;0.40;;;18.30;73.00;;;;;;5095083;28;21307;-71
2023/04/16 11:12:45;;;;;;;0.30;0.30;;;17.80;76.10;;;;;;5076590;28;20199;-71
2023/04/16 11:15:13;;;;;;;0.50;0.50;;;17.70;73.60;;;;;;5094752;28;20599;-70
2023/04/16 11:17:44;;;;;;;0.32;0.32;;;17.50;73.50;;;;;;5076252;28;21366;-71
2023/04/16 11:20:21;;;;;;;0.50;0.50;;;17.50;76.10;;;;;;5094808;28;20187;-70
2023/04/16 11:22:51;;;;;;;0.30;0.30;;;17.80;76.20;;;;;;5076577;28;20650;-72
2023/04/16 11:25:21;;;;;;;0.40;0.40;;;18.50;74.00;;;;;;5094731;28;20580;-71
2023/04/16 11:27:46;;;;;;;0.47;0.47;;;18.50;73.90;;;;;;5094527;28;20188;-72
2023/04/16 11:30:12;;;;;;;0.60;0.60;;;18.60;75.90;;;;;;5094557;28;20745;-71
2023/04/16 11:32:38;;;;;;;2.00;0.95;;;18.90;75.70;;;;;;5075954;28;20200;-71
2023/04/16 11:35:15;;;;;;;0.50;0.50;;;19.10;73.10;;;;;;5094469;28;20192;-71
2023/04/16 11:37:42;;;;;;;1.00;0.75;;;19.30;73.40;;;;;;5093709;28;20218;-71
2023/04/16 11:40:09;;;;;;;6.80;0.63;;;19.70;70.50;;;;;;5076150;28;20246;-71
2023/04/16 11:42:36;;;;;;;0.65;0.65;;;19.50;68.90;;;;;;5075822;28;20200;-70
2023/04/16 11:45:02;;;;;;;0.40;0.40;;;19.00;70.80;;;;;;5075538;28;20195;-70
2023/04/16 11:47:30;;;;;;;2.08;0.73;;;18.70;69.50;;;;;;5075731;28;20211;-71
2023/04/16 11:49:56;;;;;;;0.73;0.73;;;18.60;71.70;;;;;;5093987;28;20287;-71
2023/04/16 11:52:31;;;;;;;0.40;0.40;;;18.50;72.40;;;;;;5093748;28;20270;-72
2023/04/16 11:54:58;;;;;;;0.30;0.30;;;18.60;72.30;;;;;;5076167;28;20195;-71
2023/04/16 11:57:30;;;;;;;0.52;0.50;;;18.80;73.50;;;;;;5075482;28;20264;-71
2023/04/16 11:59:59;;;;;;;1.70;0.90;;;19.00;69.00;;;;;;5093797;28;20587;-70
2023/04/16 12:02:35;;;;;;;0.30;0.30;;;18.90;72.00;;;;;;5089126;28;20221;-71
2023/04/16 12:05:06;;;;;;;0.30;0.30;;;18.90;70.80;;;;;;5060418;28;20205;-72
2023/04/16 12:07:42;;;;;;;0.22;0.22;;;19.20;71.40;;;;;;5053323;28;20189;-71
2023/04/16 12:10:08;;;;;;;0.45;0.45;;;19.00;68.70;;;;;;5035867;28;20687;-70
2023/04/16 12:12:34;;;;;;;0.30;0.30;;;18.70;65.90;;;;;;5065871;28;20204;-72
2023/04/16 12:15:04;;;;;;;1.60;0.88;;;18.40;69.10;;;;;;5074093;28;20275;-70
2023/04/16 12:17:32;;;;;;;1.00;0.70;;;18.70;70.10;;;;;;5055205;28;20209;-71
2023/04/16 12:19:59;;;;;;;0.43;0.43;;;19.40;73.30;;;;;;5055493;28;20200;-71
2023/04/16 12:22:33;;;;;;;0.32;0.30;;;20.30;73.80;;;;;;5072804;28;20196;-71
2023/04/16 12:25:02;;;;;;;0.30;0.30;;;20.80;69.10;;;;;;5054835;28;20224;-70
2023/04/16 12:27:49;;;;;;;0.40;0.40;;;20.80;64.10;;;;;;5072824;28;20239;-71
2023/04/16 12:30:16;;;;;;;1.10;0.85;;;20.40;64.60;;;;;;5058704;28;20325;-71
2023/04/16 12:32:45;;;;;;;0.52;0.52;;;20.10;65.90;;;;;;5074970;28;20199;-71
2023/04/16 12:35:11;;;;;;;0.73;0.52;;;20.30;66.80;;;;;;5069725;28;20213;-71
2023/04/16 12:37:38;;;;;;;0.40;0.40;;;19.90;68.60;;;;;;5053041;28;20688;-71
2023/04/16 12:40:04;;;;;;;0.60;0.60;;;20.10;64.90;;;;;;5053024;28;20214;-70
2023/04/16 12:42:34;;;;;;;0.50;0.50;;;19.80;63.20;;;;;;5052426;28;20200;-71
2023/04/16 12:45:02;;;;;;;0.45;0.45;;;19.40;66.00;;;;;;5053045;28;20308;-71
2023/04/16 12:47:28;;;;;;;0.40;0.40;;;19.10;67.00;;;;;;5052710;28;20197;-72
2023/04/16 12:49:56;;;;;;;25.48;0.90;;;19.00;66.40;;;;;;5063912;28;20227;-69
2023/04/16 12:52:28;;;;;;;0.73;0.73;;;19.00;66.30;;;;;;5073284;28;20601;-71
2023/04/16 12:54:54;;;;;;;0.30;0.30;;;18.90;67.30;;;;;;5055153;28;20656;-72